sensor_id;sensor_type;location;lat;lon;timestamp;temperature;humidity
50969;DHT22;36982;51.474;7.228;2023-05-14T00:01:12;12.10;97.20
50969;DHT22;36982;51.474;7.228;2023-05-14T00:03:38;12.00;96.70
50969;DHT22;36982;51.474;7.228;2023-05-14T00:06:05;11.90;98.60
50969;DHT22;36982;51.474;7.228;2023-05-14T00:08:32;11.90;99.60
50969;DHT22;36982;51.474;7.228;2023-05-14T00:10:58;12.00;99.00
50969;DHT22;36982;51.474;7.228;2023-05-14T00:13:25;12.00;98.50
50969;DHT22;36982;51.474;7.228;2023-05-14T00:15:50;11.90;98.50
50969;DHT22;36982;51.474;7.228;2023-05-14T00:18:16;12.00;98.80
50969;DHT22;36982;51.474;7.228;2023-05-14T00:20:42;12.00;97.90
50969;DHT22;36982;51.474;7.228;2023-05-14T00:23:08;12.10;97.70
50969;DHT22;36982;51.474;7.228;2023-05-14T00:25:33;12.00;97.20
50969;DHT22;36982;51.474;7.228;2023-05-14T00:27:59;12.00;95.80
50969;DHT22;36982;51.474;7.228;2023-05-14T00:30:25;11.90;97.00
50969;DHT22;36982;51.474;7.228;2023-05-14T00:32:50;11.90;97.70
50969;DHT22;36982;51.474;7.228;2023-05-14T00:35:16;11.90;97.10
50969;DHT22;36982;51.474;7.228;2023-05-14T00:37:42;11.90;96.90
50969;DHT22;36982;51.474;7.228;2023-05-14T00:40:08;11.90;96.70
50969;DHT22;36982;51.474;7.228;2023-05-14T00:42:36;11.90;96.30
50969;DHT22;36982;51.474;7.228;2023-05-14T00:45:01;11.80;96.60
50969;DHT22;36982;51.474;7.228;2023-05-14T00:47:27;11.90;94.40
50969;DHT22;36982;51.474;7.228;2023-05-14T00:49:53;11.90;93.60
50969;DHT22;36982;51.474;7.228;2023-05-14T00:52:19;11.70;94.00
50969;DHT22;36982;51.474;7.228;2023-05-14T00:54:46;11.70;95.60
50969;DHT22;36982;51.474;7.228;2023-05-14T00:57:12;11.60;96.90
50969;DHT22;36982;51.474;7.228;2023-05-14T00:59:38;11.50;97.00
50969;DHT22;36982;51.474;7.228;2023-05-14T01:02:06;11.40;97.50
50969;DHT22;36982;51.474;7.228;2023-05-14T01:04:32;11.40;99.20
50969;DHT22;36982;51.474;7.228;2023-05-14T01:07:15;11.40;98.90
50969;DHT22;36982;51.474;7.228;2023-05-14T01:09:56;11.40;99.00
50969;DHT22;36982;51.474;7.228;2023-05-14T01:17:28;11.30;98.50
50969;DHT22;36982;51.474;7.228;2023-05-14T01:19:55;11.30;99.00
50969;DHT22;36982;51.474;7.228;2023-05-14T01:22:22;11.30;99.40
50969;DHT22;36982;51.474;7.228;2023-05-14T01:24:47;11.20;98.30
50969;DHT22;36982;51.474;7.228;2023-05-14T01:29:47;11.10;99.60
50969;DHT22;36982;51.474;7.228;2023-05-14T01:32:14;11.00;98.70
50969;DHT22;36982;51.474;7.228;2023-05-14T01:34:43;11.00;99.80
50969;DHT22;36982;51.474;7.228;2023-05-14T01:37:11;11.00;99.90
50969;DHT22;36982;51.474;7.228;2023-05-14T01:39:38;10.90;99.20
50969;DHT22;36982;51.474;7.228;2023-05-14T01:42:06;10.70;99.90
50969;DHT22;36982;51.474;7.228;2023-05-14T01:44:32;10.70;99.90
50969;DHT22;36982;51.474;7.228;2023-05-14T01:46:58;10.60;99.90
50969;DHT22;36982;51.474;7.228;2023-05-14T01:49:24;10.50;99.90
50969;DHT22;36982;51.474;7.228;2023-05-14T01:51:50;10.50;99.90
50969;DHT22;36982;51.474;7.228;2023-05-14T01:54:15;10.50;99.90
50969;DHT22;36982;51.474;7.228;2023-05-14T01:56:41;10.50;99.90
50969;DHT22;36982;51.474;7.228;2023-05-14T01:59:06;10.50;99.90
50969;DHT22;36982;51.474;7.228;2023-05-14T02:01:32;10.50;99.90
50969;DHT22;36982;51.474;7.228;2023-05-14T02:03:58;10.50;99.90
50969;DHT22;36982;51.474;7.228;2023-05-14T02:06:25;10.50;99.90
50969;DHT22;36982;51.474;7.228;2023-05-14T02:08:51;10.50;99.90
50969;DHT22;36982;51.474;7.228;2023-05-14T02:11:16;10.40;99.90
50969;DHT22;36982;51.474;7.228;2023-05-14T02:13:42;10.50;99.90
50969;DHT22;36982;51.474;7.228;2023-05-14T02:16:08;10.60;99.90
50969;DHT22;36982;51.474;7.228;2023-05-14T02:18:33;10.50;99.90
50969;DHT22;36982;51.474;7.228;2023-05-14T02:20:59;10.50;99.90
50969;DHT22;36982;51.474;7.228;2023-05-14T02:23:25;10.50;99.90
50969;DHT22;36982;51.474;7.228;2023-05-14T02:25:50;10.60;99.90
50969;DHT22;36982;51.474;7.228;2023-05-14T02:28:16;10.60;99.90
50969;DHT22;36982;51.474;7.228;2023-05-14T02:30:42;10.70;99.90
50969;DHT22;36982;51.474;7.228;2023-05-14T02:33:07;10.70;99.90
50969;DHT22;36982;51.474;7.228;2023-05-14T02:35:33;10.60;99.90
50969;DHT22;36982;51.474;7.228;2023-05-14T02:37:59;10.60;99.90
50969;DHT22;36982;51.474;7.228;2023-05-14T02:40:24;10.60;99.90
50969;DHT22;36982;51.474;7.228;2023-05-14T02:42:50;10.60;99.90
50969;DHT22;36982;51.474;7.228;2023-05-14T02:45:16;10.60;99.90
50969;DHT22;36982;51.474;7.228;2023-05-14T02:47:41;10.50;99.90
50969;DHT22;36982;51.474;7.228;2023-05-14T02:50:08;10.50;99.90
50969;DHT22;36982;51.474;7.228;2023-05-14T02:52:34;10.50;99.90
50969;DHT22;36982;51.474;7.228;2023-05-14T02:55:00;10.50;99.90
50969;DHT22;36982;51.474;7.228;2023-05-14T02:57:26;10.50;99.90
50969;DHT22;36982;51.474;7.228;2023-05-14T02:59:52;10.40;99.90
50969;DHT22;36982;51.474;7.228;2023-05-14T03:02:17;10.30;99.90
50969;DHT22;36982;51.474;7.228;2023-05-14T03:04:43;10.40;99.90
50969;DHT22;36982;51.474;7.228;2023-05-14T03:07:09;10.30;99.90
50969;DHT22;36982;51.474;7.228;2023-05-14T03:09:34;10.30;99.90
50969;DHT22;36982;51.474;7.228;2023-05-14T03:12:00;10.40;99.90
50969;DHT22;36982;51.474;7.228;2023-05-14T03:14:26;10.30;99.90
50969;DHT22;36982;51.474;7.228;2023-05-14T03:16:51;10.30;99.90
50969;DHT22;36982;51.474;7.228;2023-05-14T03:19:17;10.40;99.90
50969;DHT22;36982;51.474;7.228;2023-05-14T03:21:43;10.30;99.90
50969;DHT22;36982;51.474;7.228;2023-05-14T03:24:08;10.40;99.90
50969;DHT22;36982;51.474;7.228;2023-05-14T03:26:34;10.30;99.90
50969;DHT22;36982;51.474;7.228;2023-05-14T03:29:01;10.30;99.90
50969;DHT22;36982;51.474;7.228;2023-05-14T03:31:26;10.30;99.90
50969;DHT22;36982;51.474;7.228;2023-05-14T03:33:52;10.20;99.90
50969;DHT22;36982;51.474;7.228;2023-05-14T03:36:18;10.30;99.90
50969;DHT22;36982;51.474;7.228;2023-05-14T03:38:43;10.30;99.90
50969;DHT22;36982;51.474;7.228;2023-05-14T03:41:09;10.30;99.90
50969;DHT22;36982;51.474;7.228;2023-05-14T03:43:35;10.40;99.90
50969;DHT22;36982;51.474;7.228;2023-05-14T03:46:00;10.40;99.90
50969;DHT22;36982;51.474;7.228;2023-05-14T03:48:26;10.40;99.90
50969;DHT22;36982;51.474;7.228;2023-05-14T03:50:52;10.40;99.90
50969;DHT22;36982;51.474;7.228;2023-05-14T03:53:17;10.40;99.90
50969;DHT22;36982;51.474;7.228;2023-05-14T03:55:43;10.40;99.90
50969;DHT22;36982;51.474;7.228;2023-05-14T03:58:08;10.50;99.90
50969;DHT22;36982;51.474;7.228;2023-05-14T04:00:42;10.40;99.90
50969;DHT22;36982;51.474;7.228;2023-05-14T04:03:08;10.50;99.90
50969;DHT22;36982;51.474;7.228;2023-05-14T04:05:34;10.50;99.90
50969;DHT22;36982;51.474;7.228;2023-05-14T04:08:00;10.60;99.90
50969;DHT22;36982;51.474;7.228;2023-05-14T04:10:26;10.60;99.90
50969;DHT22;36982;51.474;7.228;2023-05-14T04:12:52;10.60;99.30
50969;DHT22;36982;51.474;7.228;2023-05-14T04:15:17;10.60;99.50
50969;DHT22;36982;51.474;7.228;2023-05-14T04:17:43;10.60;99.90
50969;DHT22;36982;51.474;7.228;2023-05-14T04:20:09;10.60;99.90
50969;DHT22;36982;51.474;7.228;2023-05-14T04:22:35;10.60;98.80
50969;DHT22;36982;51.474;7.228;2023-05-14T04:25:00;10.60;99.10
50969;DHT22;36982;51.474;7.228;2023-05-14T04:27:27;10.70;99.40
50969;DHT22;36982;51.474;7.228;2023-05-14T04:29:53;10.70;98.10
50969;DHT22;36982;51.474;7.228;2023-05-14T04:32:18;10.70;98.00
50969;DHT22;36982;51.474;7.228;2023-05-14T04:34:45;10.70;99.80
50969;DHT22;36982;51.474;7.228;2023-05-14T04:37:12;10.80;98.70
50969;DHT22;36982;51.474;7.228;2023-05-14T04:39:37;10.80;97.90
50969;DHT22;36982;51.474;7.228;2023-05-14T04:42:03;10.80;97.90
50969;DHT22;36982;51.474;7.228;2023-05-14T04:44:29;10.90;98.00
50969;DHT22;36982;51.474;7.228;2023-05-14T04:46:55;11.00;98.10
50969;DHT22;36982;51.474;7.228;2023-05-14T04:49:20;11.00;98.00
50969;DHT22;36982;51.474;7.228;2023-05-14T04:51:46;11.10;97.30
50969;DHT22;36982;51.474;7.228;2023-05-14T04:54:12;11.20;97.50
50969;DHT22;36982;51.474;7.228;2023-05-14T04:56:38;11.30;95.70
50969;DHT22;36982;51.474;7.228;2023-05-14T04:59:04;11.40;95.20
50969;DHT22;36982;51.474;7.228;2023-05-14T05:01:29;11.40;95.80
50969;DHT22;36982;51.474;7.228;2023-05-14T05:03:55;11.50;96.20
50969;DHT22;36982;51.474;7.228;2023-05-14T05:06:22;11.70;96.10
50969;DHT22;36982;51.474;7.228;2023-05-14T05:08:47;11.80;94.50
50969;DHT22;36982;51.474;7.228;2023-05-14T05:11:13;12.00;92.30
50969;DHT22;36982;51.474;7.228;2023-05-14T05:13:39;12.10;91.10
50969;DHT22;36982;51.474;7.228;2023-05-14T05:16:05;12.10;88.70
50969;DHT22;36982;51.474;7.228;2023-05-14T05:18:31;12.20;86.30
50969;DHT22;36982;51.474;7.228;2023-05-14T05:20:56;12.40;90.20
50969;DHT22;36982;51.474;7.228;2023-05-14T05:23:22;12.60;86.80
50969;DHT22;36982;51.474;7.228;2023-05-14T05:25:48;12.80;77.70
50969;DHT22;36982;51.474;7.228;2023-05-14T05:28:14;13.00;58.30
50969;DHT22;36982;51.474;7.228;2023-05-14T05:30:40;13.10;43.10
50969;DHT22;36982;51.474;7.228;2023-05-14T05:33:06;13.10;34.20
50969;DHT22;36982;51.474;7.228;2023-05-14T05:35:32;13.20;27.60
50969;DHT22;36982;51.474;7.228;2023-05-14T05:37:57;13.30;19.10
50969;DHT22;36982;51.474;7.228;2023-05-14T05:40:23;13.50;17.60
50969;DHT22;36982;51.474;7.228;2023-05-14T05:42:49;13.90;5.20
50969;DHT22;36982;51.474;7.228;2023-05-14T05:45:15;14.40;1.00
50969;DHT22;36982;51.474;7.228;2023-05-14T05:47:40;14.90;1.00
50969;DHT22;36982;51.474;7.228;2023-05-14T05:50:07;15.20;1.00
50969;DHT22;36982;51.474;7.228;2023-05-14T05:52:33;15.60;99.90
50969;DHT22;36982;51.474;7.228;2023-05-14T05:54:58;16.20;99.90
50969;DHT22;36982;51.474;7.228;2023-05-14T05:57:24;16.40;96.90
50969;DHT22;36982;51.474;7.228;2023-05-14T05:59:51;16.50;1.00
50969;DHT22;36982;51.474;7.228;2023-05-14T06:02:18;16.60;41.80
50969;DHT22;36982;51.474;7.228;2023-05-14T06:04:44;16.90;99.90
50969;DHT22;36982;51.474;7.228;2023-05-14T06:07:09;17.10;1.00
50969;DHT22;36982;51.474;7.228;2023-05-14T06:09:35;17.30;99.90
50969;DHT22;36982;51.474;7.228;2023-05-14T06:12:00;17.40;99.90
50969;DHT22;36982;51.474;7.228;2023-05-14T06:14:26;17.70;1.00
50969;DHT22;36982;51.474;7.228;2023-05-14T06:16:52;18.00;1.00
50969;DHT22;36982;51.474;7.228;2023-05-14T06:19:17;18.40;99.90
50969;DHT22;36982;51.474;7.228;2023-05-14T06:21:43;18.60;99.90
50969;DHT22;36982;51.474;7.228;2023-05-14T06:24:09;18.70;1.00
50969;DHT22;36982;51.474;7.228;2023-05-14T06:26:35;18.60;99.90
50969;DHT22;36982;51.474;7.228;2023-05-14T06:29:00;18.80;99.90
50969;DHT22;36982;51.474;7.228;2023-05-14T06:31:26;18.50;99.90
50969;DHT22;36982;51.474;7.228;2023-05-14T06:33:52;18.60;99.90
50969;DHT22;36982;51.474;7.228;2023-05-14T06:36:17;19.10;99.90
50969;DHT22;36982;51.474;7.228;2023-05-14T06:38:43;19.30;1.00
50969;DHT22;36982;51.474;7.228;2023-05-14T06:41:09;19.20;1.00
50969;DHT22;36982;51.474;7.228;2023-05-14T06:43:34;19.10;1.00
50969;DHT22;36982;51.474;7.228;2023-05-14T06:46:00;18.90;1.00
50969;DHT22;36982;51.474;7.228;2023-05-14T06:48:26;18.50;77.80
50969;DHT22;36982;51.474;7.228;2023-05-14T06:50:54;18.40;99.90
50969;DHT22;36982;51.474;7.228;2023-05-14T06:53:20;18.20;99.90
50969;DHT22;36982;51.474;7.228;2023-05-14T06:55:47;17.70;99.90
50969;DHT22;36982;51.474;7.228;2023-05-14T06:58:13;17.10;99.90
50969;DHT22;36982;51.474;7.228;2023-05-14T07:00:39;16.90;1.00
50969;DHT22;36982;51.474;7.228;2023-05-14T07:03:04;16.90;99.90
50969;DHT22;36982;51.474;7.228;2023-05-14T07:05:30;16.90;58.60
50969;DHT22;36982;51.474;7.228;2023-05-14T07:07:56;16.80;99.90
50969;DHT22;36982;51.474;7.228;2023-05-14T07:10:22;16.80;99.90
50969;DHT22;36982;51.474;7.228;2023-05-14T07:12:48;16.60;1.00
50969;DHT22;36982;51.474;7.228;2023-05-14T07:15:14;16.50;99.90
50969;DHT22;36982;51.474;7.228;2023-05-14T07:17:40;16.60;99.90
50969;DHT22;36982;51.474;7.228;2023-05-14T07:20:06;16.60;99.90
50969;DHT22;36982;51.474;7.228;2023-05-14T07:22:32;16.70;99.90
50969;DHT22;36982;51.474;7.228;2023-05-14T07:24:57;16.60;1.00
50969;DHT22;36982;51.474;7.228;2023-05-14T07:27:23;16.60;99.90
50969;DHT22;36982;51.474;7.228;2023-05-14T07:29:49;16.70;67.10
50969;DHT22;36982;51.474;7.228;2023-05-14T07:32:15;16.80;99.90
50969;DHT22;36982;51.474;7.228;2023-05-14T07:34:41;16.90;99.90
50969;DHT22;36982;51.474;7.228;2023-05-14T07:37:07;16.80;1.00
50969;DHT22;36982;51.474;7.228;2023-05-14T07:39:32;16.80;52.10
50969;DHT22;36982;51.474;7.228;2023-05-14T07:41:59;16.80;1.00
50969;DHT22;36982;51.474;7.228;2023-05-14T07:44:25;16.90;99.90
50969;DHT22;36982;51.474;7.228;2023-05-14T07:46:51;16.90;1.00
50969;DHT22;36982;51.474;7.228;2023-05-14T07:49:16;17.00;99.90
50969;DHT22;36982;51.474;7.228;2023-05-14T07:51:42;17.00;99.90
50969;DHT22;36982;51.474;7.228;2023-05-14T07:54:08;17.10;1.00
50969;DHT22;36982;51.474;7.228;2023-05-14T07:56:34;17.30;99.90
50969;DHT22;36982;51.474;7.228;2023-05-14T07:58:59;17.30;99.90
50969;DHT22;36982;51.474;7.228;2023-05-14T08:01:25;17.40;99.90
50969;DHT22;36982;51.474;7.228;2023-05-14T08:03:51;17.40;99.90
50969;DHT22;36982;51.474;7.228;2023-05-14T08:06:16;17.60;1.00
50969;DHT22;36982;51.474;7.228;2023-05-14T08:08:42;17.70;99.90
50969;DHT22;36982;51.474;7.228;2023-05-14T08:11:08;17.70;62.20
50969;DHT22;36982;51.474;7.228;2023-05-14T08:13:34;17.70;1.00
50969;DHT22;36982;51.474;7.228;2023-05-14T08:15:59;17.80;99.90
50969;DHT22;36982;51.474;7.228;2023-05-14T08:18:25;17.80;42.50
50969;DHT22;36982;51.474;7.228;2023-05-14T08:20:51;17.90;99.90
50969;DHT22;36982;51.474;7.228;2023-05-14T08:23:17;17.90;99.90
50969;DHT22;36982;51.474;7.228;2023-05-14T08:25:43;17.90;99.90
50969;DHT22;36982;51.474;7.228;2023-05-14T08:28:08;17.90;99.90
50969;DHT22;36982;51.474;7.228;2023-05-14T08:30:34;17.90;99.90
50969;DHT22;36982;51.474;7.228;2023-05-14T08:33:00;17.90;37.70
50969;DHT22;36982;51.474;7.228;2023-05-14T08:35:25;17.90;21.80
50969;DHT22;36982;51.474;7.228;2023-05-14T08:37:51;18.00;1.00
50969;DHT22;36982;51.474;7.228;2023-05-14T08:40:17;17.90;1.00
50969;DHT22;36982;51.474;7.228;2023-05-14T08:42:43;17.90;1.00
50969;DHT22;36982;51.474;7.228;2023-05-14T08:45:22;17.80;1.00
50969;DHT22;36982;51.474;7.228;2023-05-14T08:47:50;17.80;8.50
50969;DHT22;36982;51.474;7.228;2023-05-14T08:50:17;18.00;1.00
50969;DHT22;36982;51.474;7.228;2023-05-14T08:52:44;18.00;1.00
50969;DHT22;36982;51.474;7.228;2023-05-14T08:55:11;18.10;1.00
50969;DHT22;36982;51.474;7.228;2023-05-14T08:57:37;18.10;1.00
50969;DHT22;36982;51.474;7.228;2023-05-14T09:00:05;18.30;99.90
50969;DHT22;36982;51.474;7.228;2023-05-14T09:02:36;18.20;99.90
50969;DHT22;36982;51.474;7.228;2023-05-14T09:05:03;18.10;99.90
50969;DHT22;36982;51.474;7.228;2023-05-14T09:07:29;18.20;99.90
50969;DHT22;36982;51.474;7.228;2023-05-14T09:09:55;18.30;99.90
50969;DHT22;36982;51.474;7.228;2023-05-14T09:12:21;18.40;99.90
50969;DHT22;36982;51.474;7.228;2023-05-14T09:14:48;18.50;99.90
50969;DHT22;36982;51.474;7.228;2023-05-14T09:17:14;18.50;99.90
50969;DHT22;36982;51.474;7.228;2023-05-14T09:19:41;18.50;99.90
50969;DHT22;36982;51.474;7.228;2023-05-14T09:22:12;18.40;99.90
50969;DHT22;36982;51.474;7.228;2023-05-14T09:24:38;18.50;99.90
50969;DHT22;36982;51.474;7.228;2023-05-14T09:27:05;18.60;99.90
50969;DHT22;36982;51.474;7.228;2023-05-14T09:29:31;18.80;99.90
50969;DHT22;36982;51.474;7.228;2023-05-14T09:31:58;18.70;99.90
50969;DHT22;36982;51.474;7.228;2023-05-14T09:34:31;18.70;99.90
50969;DHT22;36982;51.474;7.228;2023-05-14T09:37:05;18.70;86.70
50969;DHT22;36982;51.474;7.228;2023-05-14T09:39:32;18.60;74.90
50969;DHT22;36982;51.474;7.228;2023-05-14T09:41:58;18.60;56.00
50969;DHT22;36982;51.474;7.228;2023-05-14T09:44:24;18.60;67.30
50969;DHT22;36982;51.474;7.228;2023-05-14T09:46:50;18.60;9.00
50969;DHT22;36982;51.474;7.228;2023-05-14T09:49:17;18.70;5.20
50969;DHT22;36982;51.474;7.228;2023-05-14T09:51:43;18.60;12.70
50969;DHT22;36982;51.474;7.228;2023-05-14T09:54:09;18.70;8.00
50969;DHT22;36982;51.474;7.228;2023-05-14T09:56:36;18.70;20.00
50969;DHT22;36982;51.474;7.228;2023-05-14T09:59:02;18.80;12.40
50969;DHT22;36982;51.474;7.228;2023-05-14T10:01:29;19.00;13.80
50969;DHT22;36982;51.474;7.228;2023-05-14T10:03:55;18.90;45.20
50969;DHT22;36982;51.474;7.228;2023-05-14T10:06:27;19.00;53.20
50969;DHT22;36982;51.474;7.228;2023-05-14T10:09:02;19.10;67.10
50969;DHT22;36982;51.474;7.228;2023-05-14T10:11:31;19.00;45.00
50969;DHT22;36982;51.474;7.228;2023-05-14T10:16:33;19.10;41.90
50969;DHT22;36982;51.474;7.228;2023-05-14T10:19:19;19.10;33.40
50969;DHT22;36982;51.474;7.228;2023-05-14T10:21:54;19.10;1.00
50969;DHT22;36982;51.474;7.228;2023-05-14T10:24:20;19.10;1.00
50969;DHT22;36982;51.474;7.228;2023-05-14T10:26:46;19.10;1.00
50969;DHT22;36982;51.474;7.228;2023-05-14T10:29:12;19.10;1.00
50969;DHT22;36982;51.474;7.228;2023-05-14T10:31:45;19.10;1.00
50969;DHT22;36982;51.474;7.228;2023-05-14T10:36:59;19.40;1.00
50969;DHT22;36982;51.474;7.228;2023-05-14T10:39:50;19.40;1.00
50969;DHT22;36982;51.474;7.228;2023-05-14T10:42:34;19.30;1.00
50969;DHT22;36982;51.474;7.228;2023-05-14T10:45:05;19.40;1.00
50969;DHT22;36982;51.474;7.228;2023-05-14T10:47:34;19.30;1.00
50969;DHT22;36982;51.474;7.228;2023-05-14T10:50:02;19.40;1.00
50969;DHT22;36982;51.474;7.228;2023-05-14T10:52:30;19.50;1.00
50969;DHT22;36982;51.474;7.228;2023-05-14T10:54:58;19.40;1.00
50969;DHT22;36982;51.474;7.228;2023-05-14T10:57:25;19.50;1.00
50969;DHT22;36982;51.474;7.228;2023-05-14T10:59:54;19.50;1.00
50969;DHT22;36982;51.474;7.228;2023-05-14T11:02:35;19.60;1.00
50969;DHT22;36982;51.474;7.228;2023-05-14T11:05:08;19.60;1.00
50969;DHT22;36982;51.474;7.228;2023-05-14T11:07:43;19.60;1.00
50969;DHT22;36982;51.474;7.228;2023-05-14T11:10:17;19.80;1.00
50969;DHT22;36982;51.474;7.228;2023-05-14T11:12:47;19.80;1.00
50969;DHT22;36982;51.474;7.228;2023-05-14T11:15:16;19.80;1.00
50969;DHT22;36982;51.474;7.228;2023-05-14T11:17:43;19.90;1.00
50969;DHT22;36982;51.474;7.228;2023-05-14T11:20:10;19.80;1.00
50969;DHT22;36982;51.474;7.228;2023-05-14T11:22:38;19.90;99.90
50969;DHT22;36982;51.474;7.228;2023-05-14T11:25:04;19.90;99.90
50969;DHT22;36982;51.474;7.228;2023-05-14T11:27:33;19.90;99.90
50969;DHT22;36982;51.474;7.228;2023-05-14T11:29:58;19.80;99.90
50969;DHT22;36982;51.474;7.228;2023-05-14T11:32:25;19.60;99.90
50969;DHT22;36982;51.474;7.228;2023-05-14T11:34:51;19.50;99.90
50969;DHT22;36982;51.474;7.228;2023-05-14T11:37:17;19.60;99.90
50969;DHT22;36982;51.474;7.228;2023-05-14T11:39:48;19.70;99.90
50969;DHT22;36982;51.474;7.228;2023-05-14T11:42:15;19.70;99.90
50969;DHT22;36982;51.474;7.228;2023-05-14T11:44:43;19.80;99.90
50969;DHT22;36982;51.474;7.228;2023-05-14T11:47:10;19.90;99.90
50969;DHT22;36982;51.474;7.228;2023-05-14T11:49:36;20.10;99.90
50969;DHT22;36982;51.474;7.228;2023-05-14T11:52:04;20.10;99.90
50969;DHT22;36982;51.474;7.228;2023-05-14T11:54:33;20.10;99.90
50969;DHT22;36982;51.474;7.228;2023-05-14T11:57:01;20.30;99.90
50969;DHT22;36982;51.474;7.228;2023-05-14T11:59:29;20.40;99.90
50969;DHT22;36982;51.474;7.228;2023-05-14T12:01:56;20.60;99.90
50969;DHT22;36982;51.474;7.228;2023-05-14T12:04:22;20.60;99.90
50969;DHT22;36982;51.474;7.228;2023-05-14T12:06:48;20.60;99.90
50969;DHT22;36982;51.474;7.228;2023-05-14T12:09:18;20.70;99.90
50969;DHT22;36982;51.474;7.228;2023-05-14T12:11:49;20.60;99.90
50969;DHT22;36982;51.474;7.228;2023-05-14T12:14:22;20.60;99.90
50969;DHT22;36982;51.474;7.228;2023-05-14T12:16:49;20.70;99.90
50969;DHT22;36982;51.474;7.228;2023-05-14T12:19:17;20.60;99.90
50969;DHT22;36982;51.474;7.228;2023-05-14T12:21:44;20.60;99.90
50969;DHT22;36982;51.474;7.228;2023-05-14T12:24:12;20.60;99.90
50969;DHT22;36982;51.474;7.228;2023-05-14T12:26:38;20.60;99.90
50969;DHT22;36982;51.474;7.228;2023-05-14T12:29:04;20.40;99.90
50969;DHT22;36982;51.474;7.228;2023-05-14T12:31:34;20.40;99.90
50969;DHT22;36982;51.474;7.228;2023-05-14T12:34:01;20.50;99.90
50969;DHT22;36982;51.474;7.228;2023-05-14T12:36:27;20.50;99.90
50969;DHT22;36982;51.474;7.228;2023-05-14T12:39:01;20.50;99.90
50969;DHT22;36982;51.474;7.228;2023-05-14T12:41:31;20.50;99.90
50969;DHT22;36982;51.474;7.228;2023-05-14T12:43:58;20.40;99.90
50969;DHT22;36982;51.474;7.228;2023-05-14T12:46:25;20.50;99.90
50969;DHT22;36982;51.474;7.228;2023-05-14T12:48:53;20.60;99.90
50969;DHT22;36982;51.474;7.228;2023-05-14T12:51:19;20.60;99.90
50969;DHT22;36982;51.474;7.228;2023-05-14T12:53:44;20.70;99.90
50969;DHT22;36982;51.474;7.228;2023-05-14T12:56:11;20.80;99.90
50969;DHT22;36982;51.474;7.228;2023-05-14T12:58:37;20.60;99.90
50969;DHT22;36982;51.474;7.228;2023-05-14T13:01:03;20.40;99.90
50969;DHT22;36982;51.474;7.228;2023-05-14T13:03:28;20.30;99.90
50969;DHT22;36982;51.474;7.228;2023-05-14T13:05:55;20.30;99.90
50969;DHT22;36982;51.474;7.228;2023-05-14T13:08:21;20.30;99.90
50969;DHT22;36982;51.474;7.228;2023-05-14T13:10:50;20.30;99.90
50969;DHT22;36982;51.474;7.228;2023-05-14T13:13:15;20.40;99.90
50969;DHT22;36982;51.474;7.228;2023-05-14T13:15:41;20.50;99.90
50969;DHT22;36982;51.474;7.228;2023-05-14T13:18:07;20.50;99.90
50969;DHT22;36982;51.474;7.228;2023-05-14T13:20:33;20.60;99.90
50969;DHT22;36982;51.474;7.228;2023-05-14T13:22:59;20.70;99.90
50969;DHT22;36982;51.474;7.228;2023-05-14T13:25:25;20.70;99.90
50969;DHT22;36982;51.474;7.228;2023-05-14T13:27:52;20.80;99.90
50969;DHT22;36982;51.474;7.228;2023-05-14T13:30:17;20.70;99.90
50969;DHT22;36982;51.474;7.228;2023-05-14T13:32:43;20.70;99.90
50969;DHT22;36982;51.474;7.228;2023-05-14T13:35:10;20.70;99.90
50969;DHT22;36982;51.474;7.228;2023-05-14T13:37:35;20.80;99.90
50969;DHT22;36982;51.474;7.228;2023-05-14T13:40:01;20.80;99.90
50969;DHT22;36982;51.474;7.228;2023-05-14T13:42:29;20.80;99.90
50969;DHT22;36982;51.474;7.228;2023-05-14T13:44:56;20.90;99.90
50969;DHT22;36982;51.474;7.228;2023-05-14T13:47:22;20.80;99.90
50969;DHT22;36982;51.474;7.228;2023-05-14T13:49:47;20.80;99.90
50969;DHT22;36982;51.474;7.228;2023-05-14T13:52:13;20.70;99.90
50969;DHT22;36982;51.474;7.228;2023-05-14T13:54:39;20.80;99.90
50969;DHT22;36982;51.474;7.228;2023-05-14T13:57:05;20.80;99.90
50969;DHT22;36982;51.474;7.228;2023-05-14T13:59:31;20.90;99.90
50969;DHT22;36982;51.474;7.228;2023-05-14T14:01:56;21.00;99.90
50969;DHT22;36982;51.474;7.228;2023-05-14T14:04:22;21.10;99.90
50969;DHT22;36982;51.474;7.228;2023-05-14T14:06:50;21.10;99.90
50969;DHT22;36982;51.474;7.228;2023-05-14T14:09:15;20.90;99.90
50969;DHT22;36982;51.474;7.228;2023-05-14T14:11:41;20.90;99.90
50969;DHT22;36982;51.474;7.228;2023-05-14T14:14:07;20.90;99.90
50969;DHT22;36982;51.474;7.228;2023-05-14T14:16:32;21.00;99.90
50969;DHT22;36982;51.474;7.228;2023-05-14T14:18:58;21.10;99.90
50969;DHT22;36982;51.474;7.228;2023-05-14T14:21:24;21.00;99.90
50969;DHT22;36982;51.474;7.228;2023-05-14T14:23:49;21.10;99.90
50969;DHT22;36982;51.474;7.228;2023-05-14T14:26:15;21.00;99.90
50969;DHT22;36982;51.474;7.228;2023-05-14T14:28:41;20.90;99.90
50969;DHT22;36982;51.474;7.228;2023-05-14T14:31:06;21.10;99.90
50969;DHT22;36982;51.474;7.228;2023-05-14T14:33:32;21.00;99.90
50969;DHT22;36982;51.474;7.228;2023-05-14T14:35:58;20.80;99.90
50969;DHT22;36982;51.474;7.228;2023-05-14T14:38:24;20.80;99.90
50969;DHT22;36982;51.474;7.228;2023-05-14T14:40:49;20.80;99.90
50969;DHT22;36982;51.474;7.228;2023-05-14T14:43:15;20.80;99.90
50969;DHT22;36982;51.474;7.228;2023-05-14T14:45:41;20.80;99.90
50969;DHT22;36982;51.474;7.228;2023-05-14T14:48:30;20.90;99.90
50969;DHT22;36982;51.474;7.228;2023-05-14T14:50:59;20.80;99.90
50969;DHT22;36982;51.474;7.228;2023-05-14T14:53:26;20.90;99.90
50969;DHT22;36982;51.474;7.228;2023-05-14T14:55:52;21.10;99.90
50969;DHT22;36982;51.474;7.228;2023-05-14T14:58:18;21.30;99.90
50969;DHT22;36982;51.474;7.228;2023-05-14T15:00:44;21.40;99.90
50969;DHT22;36982;51.474;7.228;2023-05-14T15:03:10;21.30;99.90
50969;DHT22;36982;51.474;7.228;2023-05-14T15:05:36;21.30;99.90
50969;DHT22;36982;51.474;7.228;2023-05-14T15:08:02;21.40;99.90
50969;DHT22;36982;51.474;7.228;2023-05-14T15:10:29;21.20;99.90
50969;DHT22;36982;51.474;7.228;2023-05-14T15:12:57;21.20;99.90
50969;DHT22;36982;51.474;7.228;2023-05-14T15:15:23;21.30;99.90
50969;DHT22;36982;51.474;7.228;2023-05-14T15:17:49;21.40;99.90
50969;DHT22;36982;51.474;7.228;2023-05-14T15:20:14;21.50;99.90
50969;DHT22;36982;51.474;7.228;2023-05-14T15:22:41;21.50;99.90
50969;DHT22;36982;51.474;7.228;2023-05-14T15:25:07;21.30;99.90
50969;DHT22;36982;51.474;7.228;2023-05-14T15:27:33;21.20;99.90
50969;DHT22;36982;51.474;7.228;2023-05-14T15:29:59;21.20;99.90
50969;DHT22;36982;51.474;7.228;2023-05-14T15:32:24;21.10;99.90
50969;DHT22;36982;51.474;7.228;2023-05-14T15:34:53;21.10;99.90
50969;DHT22;36982;51.474;7.228;2023-05-14T15:37:18;21.20;99.90
50969;DHT22;36982;51.474;7.228;2023-05-14T15:39:44;21.30;99.90
50969;DHT22;36982;51.474;7.228;2023-05-14T15:42:10;21.30;99.90